Time;durP1;ratioP1;P1;durP2;ratioP2;P2;SDS_P1;SDS_P2;PMS_P1;PMS_P2;Temp;Humidity;BMP_temperature;BMP_pressure;BME280_temperature;BME280_humidity;BME280_pressure;Samples;Min_cycle;Max_cycle;Signal;HPM_P1;HPM_P2
2022/01/18 00:00:03;;;;;;;;;;;-1.30;99.90;;;;;;4244867;27;20010;-54
2022/01/18 00:02:05;;;;;;;;;;;-1.20;99.90;;;;;;4236663;27;20034;-54
2022/01/18 00:04:08;;;;;;;;;;;-1.20;99.90;;;;;;4241086;27;20661;-54
2022/01/18 00:06:10;;;;;;;;;;;-1.20;99.90;;;;;;4235387;27;19967;-54
2022/01/18 00:08:12;;;;;;;;;;;-1.30;99.90;;;;;;4238918;27;19927;-54
2022/01/18 00:10:14;;;;;;;;;;;-1.40;99.90;;;;;;4232268;27;19939;-54
2022/01/18 00:12:54;;;;;;;;;;;-1.50;99.90;;;;;;4228800;27;20026;-55
2022/01/18 00:15:15;;;;;;;;;;;-1.40;99.90;;;;;;4230508;27;20334;-54
2022/01/18 00:17:24;;;;;;;;;;;-1.50;99.90;;;;;;4236288;27;19966;-55
2022/01/18 00:19:26;;;;;;;;;;;-1.60;99.90;;;;;;4238000;27;20119;-55
2022/01/18 00:21:36;;;;;;;;;;;-1.40;99.90;;;;;;4237116;27;19934;-55
2022/01/18 00:23:38;;;;;;;;;;;-1.40;99.90;;;;;;4242740;27;20299;-55
2022/01/18 00:25:44;;;;;;;;;;;-1.40;99.90;;;;;;4222494;28;19967;-54
2022/01/18 00:27:48;;;;;;;;;;;-1.40;99.90;;;;;;4243332;27;19927;-54
2022/01/18 00:30:07;;;;;;;;;;;-1.40;99.90;;;;;;4233223;27;20307;-54
2022/01/18 00:32:23;;;;;;;;;;;-1.30;99.90;;;;;;4239008;27;19924;-54
2022/01/18 00:34:29;;;;;;;;;;;-1.30;99.90;;;;;;4216809;28;19935;-53
2022/01/18 00:38:47;;;;;;;;;;;-1.20;99.90;;;;;;4235131;27;20466;-53
2022/01/18 00:40:49;;;;;;;;;;;-1.30;99.90;;;;;;4239718;27;20448;-53
2022/01/18 00:42:51;;;;;;;;;;;-1.40;99.90;;;;;;4229619;28;20010;-53
2022/01/18 00:44:54;;;;;;;;;;;-1.40;99.90;;;;;;4234137;27;19962;-54
2022/01/18 00:46:55;;;;;;;;;;;-1.60;99.90;;;;;;4212882;28;19953;-54
2022/01/18 00:49:00;;;;;;;;;;;-1.80;99.90;;;;;;4231975;27;19932;-54
2022/01/18 00:51:04;;;;;;;;;;;-1.80;99.90;;;;;;4228864;28;19992;-53
2022/01/18 00:53:10;;;;;;;;;;;-1.80;99.90;;;;;;4238342;27;19970;-54
2022/01/18 00:55:14;;;;;;;;;;;-1.90;99.90;;;;;;4232438;28;20451;-55
2022/01/18 00:57:16;;;;;;;;;;;-1.70;99.90;;;;;;4197000;28;19932;-54
2022/01/18 00:59:18;;;;;;;;;;;-1.60;99.90;;;;;;4236745;28;19977;-53
2022/01/18 01:01:22;;;;;;;;;;;-1.50;99.90;;;;;;4240893;28;20017;-53
2022/01/18 01:03:24;;;;;;;;;;;-1.70;99.90;;;;;;4236816;28;19923;-55
2022/01/18 01:05:34;;;;;;;;;;;-1.90;99.90;;;;;;4239437;28;19923;-55
2022/01/18 01:07:37;;;;;;;;;;;-2.10;99.90;;;;;;4238944;28;20399;-55
2022/01/18 01:09:59;;;;;;;;;;;-2.30;99.90;;;;;;4236082;27;20019;-54
2022/01/18 01:12:01;;;;;;;;;;;-2.30;99.90;;;;;;4223249;28;19973;-54
2022/01/18 01:14:05;;;;;;;;;;;-2.30;99.90;;;;;;4238168;28;19928;-54
2022/01/18 01:18:33;;;;;;;;;;;-2.30;99.90;;;;;;4233922;28;19932;-55
2022/01/18 01:44:06;;;;;;;;;;;-2.10;99.90;;;;;;4230542;27;20466;-55
2022/01/18 01:46:08;;;;;;;;;;;-2.10;99.90;;;;;;4235507;27;19927;-55
2022/01/18 01:48:10;;;;;;;;;;;-2.20;99.90;;;;;;4244041;27;20379;-54
2022/01/18 01:50:17;;;;;;;;;;;-2.20;99.90;;;;;;4242452;27;19967;-54
2022/01/18 01:52:20;;;;;;;;;;;-2.10;99.90;;;;;;4241716;27;20017;-55
2022/01/18 01:54:22;;;;;;;;;;;-2.10;99.90;;;;;;4239237;27;20376;-54
2022/01/18 01:56:24;;;;;;;;;;;-2.20;99.90;;;;;;4234422;27;20366;-54
2022/01/18 01:58:26;;;;;;;;;;;-2.30;99.90;;;;;;4236788;27;20355;-54
2022/01/18 02:00:28;;;;;;;;;;;-2.30;99.90;;;;;;4238290;27;19923;-54
2022/01/18 02:02:30;;;;;;;;;;;-2.20;99.90;;;;;;4240078;27;19932;-54
2022/01/18 02:04:32;;;;;;;;;;;-2.10;99.90;;;;;;4241993;27;19931;-54
2022/01/18 02:06:34;;;;;;;;;;;-2.00;99.90;;;;;;4239142;27;19927;-54
2022/01/18 02:08:36;;;;;;;;;;;-2.10;99.90;;;;;;4230716;27;19982;-54
2022/01/18 02:10:39;;;;;;;;;;;-2.20;99.90;;;;;;4230042;27;19935;-54
2022/01/18 02:12:41;;;;;;;;;;;-2.20;99.90;;;;;;4244180;27;19965;-55
2022/01/18 02:14:47;;;;;;;;;;;-2.20;99.90;;;;;;4234158;27;19954;-54
2022/01/18 02:21:45;;;;;;;;;;;-2.20;99.90;;;;;;4243287;27;19988;-53
2022/01/18 02:23:47;;;;;;;;;;;-2.20;99.90;;;;;;4236213;27;20018;-54
2022/01/18 02:25:49;;;;;;;;;;;-2.20;99.90;;;;;;4225057;28;19930;-54
2022/01/18 02:27:51;;;;;;;;;;;-2.20;99.90;;;;;;4232606;27;19967;-54
2022/01/18 02:29:53;;;;;;;;;;;-2.20;99.90;;;;;;4232748;27;20014;-54
2022/01/18 02:31:56;;;;;;;;;;;-2.10;99.90;;;;;;4233785;27;20346;-55
2022/01/18 02:34:05;;;;;;;;;;;-2.20;99.90;;;;;;4240543;27;19980;-54
2022/01/18 02:36:07;;;;;;;;;;;-2.40;99.90;;;;;;4233774;27;19974;-54
2022/01/18 02:38:09;;;;;;;;;;;-2.50;99.90;;;;;;4242441;27;20027;-55
2022/01/18 02:40:13;;;;;;;;;;;-2.40;99.90;;;;;;4238493;27;19923;-53
2022/01/18 02:42:19;;;;;;;;;;;-2.40;99.90;;;;;;4243708;27;19927;-54
2022/01/18 02:44:21;;;;;;;;;;;-2.30;99.90;;;;;;4229813;27;19979;-53
2022/01/18 02:46:23;;;;;;;;;;;-2.30;99.90;;;;;;4232277;27;19927;-53
2022/01/18 02:48:26;;;;;;;;;;;-2.30;99.90;;;;;;4231348;27;19923;-54
2022/01/18 02:50:28;;;;;;;;;;;-2.30;99.90;;;;;;4239866;27;20026;-53
2022/01/18 02:52:30;;;;;;;;;;;-2.40;99.90;;;;;;4239216;27;20443;-54
2022/01/18 02:54:32;;;;;;;;;;;-2.60;99.90;;;;;;4240133;27;20395;-54
2022/01/18 02:56:36;;;;;;;;;;;-2.70;99.90;;;;;;4229481;27;19967;-54
2022/01/18 02:58:38;;;;;;;;;;;-2.80;99.90;;;;;;4231568;27;20494;-54
2022/01/18 03:03:14;;;;;;;;;;;-2.90;99.90;;;;;;4236625;27;19928;-53
2022/01/18 03:05:17;;;;;;;;;;;-2.90;99.90;;;;;;4236852;27;20710;-54
2022/01/18 03:07:19;;;;;;;;;;;-2.90;99.90;;;;;;4235871;27;19970;-54
2022/01/18 03:09:21;;;;;;;;;;;-3.00;99.90;;;;;;4244448;27;19980;-55
2022/01/18 03:11:22;;;;;;;;;;;-2.90;99.90;;;;;;4234003;27;20027;-54
2022/01/18 03:13:24;;;;;;;;;;;-2.90;99.90;;;;;;4244992;27;20010;-55
2022/01/18 03:15:26;;;;;;;;;;;-2.60;99.90;;;;;;4233279;27;19927;-55
2022/01/18 03:17:28;;;;;;;;;;;-2.50;99.90;;;;;;4241410;27;20682;-54
2022/01/18 03:19:30;;;;;;;;;;;-2.60;99.90;;;;;;4234181;27;19996;-54
2022/01/18 03:21:32;;;;;;;;;;;-2.70;99.90;;;;;;4229923;27;19932;-53
2022/01/18 03:23:34;;;;;;;;;;;-2.80;99.90;;;;;;4214483;28;20034;-52
2022/01/18 03:29:59;;;;;;;;;;;-3.00;99.90;;;;;;4211054;28;19931;-54
2022/01/18 03:32:02;;;;;;;;;;;-3.00;99.90;;;;;;4233564;27;19976;-54
2022/01/18 03:34:04;;;;;;;;;;;-3.00;99.90;;;;;;4235462;27;19965;-53
2022/01/18 03:36:06;;;;;;;;;;;-3.10;99.90;;;;;;4235081;27;20291;-54
2022/01/18 03:38:08;;;;;;;;;;;-3.00;99.90;;;;;;4244757;27;19962;-54
2022/01/18 03:40:10;;;;;;;;;;;-2.80;99.90;;;;;;4235401;27;20752;-54
2022/01/18 03:44:33;;;;;;;;;;;-2.80;99.90;;;;;;4236611;27;19954;-54
2022/01/18 03:46:36;;;;;;;;;;;-3.00;99.90;;;;;;4241345;27;20455;-54
2022/01/18 03:48:39;;;;;;;;;;;-3.00;99.90;;;;;;4211632;28;19925;-53
2022/01/18 03:50:41;;;;;;;;;;;-3.10;99.90;;;;;;4239069;27;19981;-54
2022/01/18 03:52:44;;;;;;;;;;;-3.00;99.90;;;;;;4234919;27;20320;-55
2022/01/18 03:54:50;;;;;;;;;;;-3.00;99.90;;;;;;4243026;27;19927;-53
2022/01/18 03:56:52;;;;;;;;;;;-3.10;99.90;;;;;;4227397;27;20364;-53
2022/01/18 03:58:54;;;;;;;;;;;-3.10;99.90;;;;;;4230666;27;20065;-53
2022/01/18 04:00:56;;;;;;;;;;;-3.20;99.90;;;;;;4228108;27;19923;-53
2022/01/18 04:02:59;;;;;;;;;;;-3.20;99.90;;;;;;4234267;27;20016;-54
2022/01/18 04:05:02;;;;;;;;;;;-3.10;99.90;;;;;;4235991;27;20315;-53
2022/01/18 04:07:05;;;;;;;;;;;-3.00;99.90;;;;;;4241726;27;19963;-54
2022/01/18 04:09:07;;;;;;;;;;;-3.00;99.90;;;;;;4235565;27;19962;-53
2022/01/18 04:11:09;;;;;;;;;;;-3.10;99.90;;;;;;4239699;27;19967;-55
2022/01/18 04:13:11;;;;;;;;;;;-3.20;99.90;;;;;;4232184;27;19935;-53
2022/01/18 04:15:14;;;;;;;;;;;-3.20;99.90;;;;;;4230037;27;19942;-55
2022/01/18 04:17:44;;;;;;;;;;;-3.30;99.90;;;;;;4228450;27;20534;-54
2022/01/18 04:28:40;;;;;;;;;;;-3.00;99.90;;;;;;4229601;27;20443;-54
2022/01/18 04:30:42;;;;;;;;;;;-3.10;99.90;;;;;;4233014;27;19970;-53
2022/01/18 04:32:43;;;;;;;;;;;-3.00;99.90;;;;;;4229837;27;20465;-54
2022/01/18 04:34:45;;;;;;;;;;;-3.00;99.90;;;;;;4241669;27;20296;-53
2022/01/18 04:36:49;;;;;;;;;;;-3.00;99.90;;;;;;4235813;27;19929;-53
2022/01/18 04:38:51;;;;;;;;;;;-2.90;99.90;;;;;;4243747;27;19931;-54
2022/01/18 04:40:53;;;;;;;;;;;-3.00;99.90;;;;;;4231015;27;19931;-53
2022/01/18 04:49:38;;;;;;;;;;;-3.40;99.90;;;;;;4227471;28;19970;-53
2022/01/18 04:51:41;;;;;;;;;;;-3.40;99.90;;;;;;4233708;27;20438;-54
2022/01/18 04:53:54;;;;;;;;;;;-3.30;99.90;;;;;;4240530;27;19923;-53
2022/01/18 04:55:57;;;;;;;;;;;-3.30;99.90;;;;;;4234333;27;20027;-54
2022/01/18 04:57:59;;;;;;;;;;;-3.40;99.90;;;;;;4240486;28;20413;-54
2022/01/18 05:00:01;;;;;;;;;;;-3.40;99.90;;;;;;4216529;28;19963;-54
2022/01/18 05:02:03;;;;;;;;;;;-3.50;99.90;;;;;;4227120;28;19938;-54
2022/01/18 05:04:05;;;;;;;;;;;-3.40;99.90;;;;;;4234244;27;19936;-54
2022/01/18 05:06:09;;;;;;;;;;;-3.50;99.90;;;;;;4245634;27;19923;-53
2022/01/18 05:08:14;;;;;;;;;;;-3.50;99.90;;;;;;4218512;28;19932;-53
2022/01/18 05:10:19;;;;;;;;;;;-3.30;99.90;;;;;;4246664;27;19928;-55
2022/01/18 05:14:54;;;;;;;;;;;-3.40;99.90;;;;;;4177895;28;20711;-54
2022/01/18 05:17:03;;;;;;;;;;;-3.40;99.90;;;;;;4174687;28;19925;-53
2022/01/18 05:23:41;;;;;;;;;;;-3.50;99.90;;;;;;4147077;28;19982;-54
2022/01/18 05:25:46;;;;;;;;;;;-3.30;99.90;;;;;;4174041;28;20380;-54
2022/01/18 05:27:47;;;;;;;;;;;-3.20;99.90;;;;;;4175271;28;19958;-54
2022/01/18 05:29:50;;;;;;;;;;;-3.10;99.90;;;;;;4176390;28;19979;-54
2022/01/18 05:31:53;;;;;;;;;;;-3.00;99.90;;;;;;4174119;28;19952;-54
2022/01/18 05:33:55;;;;;;;;;;;-2.90;99.90;;;;;;4173576;28;19928;-54
2022/01/18 05:35:57;;;;;;;;;;;-2.90;99.90;;;;;;4173430;28;19956;-54
2022/01/18 05:37:59;;;;;;;;;;;-2.90;99.90;;;;;;4175946;28;19964;-54
2022/01/18 05:40:01;;;;;;;;;;;-2.90;99.90;;;;;;4175762;28;19986;-55
2022/01/18 05:42:03;;;;;;;;;;;-3.20;99.90;;;;;;4173503;28;19960;-54
2022/01/18 05:44:05;;;;;;;;;;;-3.40;99.90;;;;;;4176068;28;20019;-54
2022/01/18 05:46:07;;;;;;;;;;;-3.50;99.90;;;;;;4174135;28;19987;-54
2022/01/18 05:48:09;;;;;;;;;;;-3.60;99.90;;;;;;4175489;28;20018;-55
2022/01/18 05:50:12;;;;;;;;;;;-3.70;99.90;;;;;;4172660;28;20397;-54
2022/01/18 05:52:14;;;;;;;;;;;-3.70;99.90;;;;;;4222754;27;20022;-53
2022/01/18 05:54:16;;;;;;;;;;;-3.70;99.90;;;;;;4236724;27;20591;-54
2022/01/18 05:56:18;;;;;;;;;;;-3.70;99.90;;;;;;4244855;27;19963;-54
2022/01/18 05:58:20;;;;;;;;;;;-3.70;99.90;;;;;;4234596;27;19951;-53
2022/01/18 06:00:23;;;;;;;;;;;-3.70;99.90;;;;;;4244943;27;20018;-54
2022/01/18 06:03:02;;;;;;;;;;;-3.80;99.90;;;;;;4235669;27;19962;-54
2022/01/18 06:07:14;;;;;;;;;;;-3.70;99.90;;;;;;4238420;27;19927;-53
2022/01/18 06:09:15;;;;;;;;;;;-3.80;99.90;;;;;;4239652;27;19928;-54
2022/01/18 06:11:17;;;;;;;;;;;-3.90;99.90;;;;;;4243064;27;19974;-54
2022/01/18 06:13:19;;;;;;;;;;;-4.00;99.90;;;;;;4243284;27;20444;-54
2022/01/18 06:15:21;;;;;;;;;;;-3.70;99.90;;;;;;4229913;27;19967;-54
2022/01/18 06:17:23;;;;;;;;;;;-3.60;99.90;;;;;;4242692;27;19924;-54
2022/01/18 06:19:25;;;;;;;;;;;-3.40;99.90;;;;;;4236519;27;19923;-54
2022/01/18 06:21:27;;;;;;;;;;;-3.40;99.90;;;;;;4231288;27;19970;-52
2022/01/18 06:23:29;;;;;;;;;;;-3.20;99.90;;;;;;4232698;27;19935;-51
2022/01/18 06:25:31;;;;;;;;;;;-3.10;99.90;;;;;;4231279;27;20343;-52
2022/01/18 06:27:33;;;;;;;;;;;-3.10;99.90;;;;;;4233048;27;20721;-52
2022/01/18 06:29:35;;;;;;;;;;;-3.30;99.90;;;;;;4238650;27;19967;-51
2022/01/18 06:31:37;;;;;;;;;;;-3.40;99.90;;;;;;4239408;27;19951;-52
2022/01/18 06:33:39;;;;;;;;;;;-3.40;99.90;;;;;;4211387;28;19928;-50
2022/01/18 06:35:41;;;;;;;;;;;-3.40;99.90;;;;;;4235017;27;19971;-51
2022/01/18 06:37:43;;;;;;;;;;;-3.50;99.90;;;;;;4239438;27;19956;-49
2022/01/18 06:39:45;;;;;;;;;;;-3.40;99.90;;;;;;4236427;27;20359;-51
2022/01/18 06:41:47;;;;;;;;;;;-3.30;99.90;;;;;;4241806;27;19931;-50
2022/01/18 06:43:49;;;;;;;;;;;-3.40;99.90;;;;;;4236263;27;20038;-50
2022/01/18 06:45:51;;;;;;;;;;;-3.60;99.90;;;;;;4244477;27;19923;-51
2022/01/18 06:47:53;;;;;;;;;;;-3.60;99.90;;;;;;4235955;27;19927;-51
2022/01/18 06:49:55;;;;;;;;;;;-3.70;99.90;;;;;;4244039;27;19963;-51
2022/01/18 06:51:57;;;;;;;;;;;-3.70;99.90;;;;;;4234848;27;20026;-51
2022/01/18 06:53:59;;;;;;;;;;;-3.80;99.90;;;;;;4245002;27;20004;-52
2022/01/18 06:56:02;;;;;;;;;;;-3.70;99.90;;;;;;4239033;27;19927;-51
2022/01/18 06:58:04;;;;;;;;;;;-3.60;99.90;;;;;;4242885;27;19978;-50
2022/01/18 07:00:07;;;;;;;;;;;-3.60;99.90;;;;;;4240730;27;19928;-51
2022/01/18 07:02:09;;;;;;;;;;;-3.60;99.90;;;;;;4242511;27;19958;-52
2022/01/18 07:04:11;;;;;;;;;;;-3.50;99.90;;;;;;4240992;27;19989;-50
2022/01/18 07:06:14;;;;;;;;;;;-3.50;99.90;;;;;;4241547;27;19931;-49
2022/01/18 07:08:16;;;;;;;;;;;-3.50;99.90;;;;;;4237104;27;19924;-50
2022/01/18 07:10:18;;;;;;;;;;;-3.60;99.90;;;;;;4231696;27;19931;-52
2022/01/18 07:12:22;;;;;;;;;;;-3.70;99.90;;;;;;4236308;27;19967;-51
2022/01/18 07:14:24;;;;;;;;;;;-3.60;99.90;;;;;;4242335;27;19927;-52
2022/01/18 07:16:26;;;;;;;;;;;-3.70;99.90;;;;;;4236460;27;20329;-51
2022/01/18 07:18:28;;;;;;;;;;;-3.70;99.90;;;;;;4231298;27;20034;-49
2022/01/18 07:20:30;;;;;;;;;;;-3.80;99.90;;;;;;4231722;27;19927;-51
2022/01/18 07:22:32;;;;;;;;;;;-3.70;99.90;;;;;;4241690;27;19971;-51
2022/01/18 07:26:38;;;;;;;;;;;-3.70;99.90;;;;;;4234588;27;20375;-51
2022/01/18 07:28:40;;;;;;;;;;;-3.60;99.90;;;;;;4241481;27;19967;-50
2022/01/18 07:30:42;;;;;;;;;;;-3.50;99.90;;;;;;4238161;27;19977;-52
2022/01/18 07:32:44;;;;;;;;;;;-3.40;99.90;;;;;;4241186;27;19979;-50
2022/01/18 07:34:52;;;;;;;;;;;-3.30;99.90;;;;;;4228513;27;19988;-52
2022/01/18 07:36:54;;;;;;;;;;;-3.20;99.90;;;;;;4236226;27;19931;-49
2022/01/18 07:38:56;;;;;;;;;;;-3.10;99.90;;;;;;4232968;27;19963;-47
2022/01/18 07:40:58;;;;;;;;;;;-3.00;99.90;;;;;;4236936;27;19923;-49
2022/01/18 07:43:01;;;;;;;;;;;-3.00;99.90;;;;;;4237449;27;19949;-48
2022/01/18 07:45:04;;;;;;;;;;;-3.00;99.90;;;;;;4244539;27;19938;-52
2022/01/18 07:47:06;;;;;;;;;;;-3.00;99.90;;;;;;4235086;27;19934;-51
2022/01/18 07:49:07;;;;;;;;;;;-3.10;99.90;;;;;;4242050;27;20009;-51
2022/01/18 07:51:11;;;;;;;;;;;-2.90;99.90;;;;;;4218196;28;20006;-49
2022/01/18 07:53:13;;;;;;;;;;;-2.70;99.90;;;;;;4241529;27;19923;-49
2022/01/18 07:55:15;;;;;;;;;;;-2.60;99.90;;;;;;4231145;27;20027;-49
2022/01/18 07:57:19;;;;;;;;;;;-2.50;99.90;;;;;;4244690;27;19927;-52
2022/01/18 07:59:21;;;;;;;;;;;-2.40;99.90;;;;;;4232535;27;20031;-52
2022/01/18 08:01:23;;;;;;;;;;;-2.50;99.90;;;;;;4244023;27;19931;-50
2022/01/18 08:03:27;;;;;;;;;;;-2.60;99.90;;;;;;4214545;27;19975;-49
2022/01/18 08:05:29;;;;;;;;;;;-2.60;99.90;;;;;;4237302;27;19974;-51
2022/01/18 08:07:31;;;;;;;;;;;-2.40;99.90;;;;;;4233859;27;20430;-51
2022/01/18 08:09:33;;;;;;;;;;;-2.30;99.90;;;;;;4243280;27;19974;-52
2022/01/18 08:11:36;;;;;;;;;;;-2.40;99.90;;;;;;4232617;27;20452;-49
2022/01/18 08:13:41;;;;;;;;;;;-2.40;99.90;;;;;;4244747;27;19954;-51
2022/01/18 08:15:44;;;;;;;;;;;-2.30;99.90;;;;;;4215879;28;19924;-50
2022/01/18 08:17:47;;;;;;;;;;;-2.30;99.90;;;;;;4241393;27;20482;-50
2022/01/18 08:19:49;;;;;;;;;;;-2.30;99.90;;;;;;4232474;27;20300;-52
2022/01/18 08:21:51;;;;;;;;;;;-2.20;99.90;;;;;;4244397;27;20330;-52
2022/01/18 08:23:53;;;;;;;;;;;-2.20;99.90;;;;;;4233672;27;19938;-52
2022/01/18 08:25:55;;;;;;;;;;;-2.20;99.90;;;;;;4227375;28;19963;-52
2022/01/18 08:27:57;;;;;;;;;;;-2.20;99.90;;;;;;4230782;27;19927;-48
2022/01/18 08:29:59;;;;;;;;;;;-2.10;99.90;;;;;;4243512;27;19924;-51
2022/01/18 08:32:02;;;;;;;;;;;-2.00;99.90;;;;;;4237305;27;19963;-51
2022/01/18 08:34:04;;;;;;;;;;;-1.90;99.90;;;;;;4242358;27;20446;-51
2022/01/18 08:36:07;;;;;;;;;;;-1.90;99.90;;;;;;4234430;27;20022;-48
2022/01/18 08:38:08;;;;;;;;;;;-1.80;99.90;;;;;;4241590;27;19962;-51
2022/01/18 08:40:10;;;;;;;;;;;-1.70;99.90;;;;;;4238251;27;19966;-49
2022/01/18 08:42:13;;;;;;;;;;;-1.70;99.90;;;;;;4237670;27;19923;-50
2022/01/18 08:44:15;;;;;;;;;;;-1.60;99.90;;;;;;4234933;27;19950;-52
2022/01/18 08:46:17;;;;;;;;;;;-1.60;99.90;;;;;;4221446;28;20773;-52
2022/01/18 08:48:19;;;;;;;;;;;-1.50;99.90;;;;;;4234409;27;19955;-52
2022/01/18 08:50:21;;;;;;;;;;;-1.40;99.90;;;;;;4240586;27;19927;-52
2022/01/18 08:52:23;;;;;;;;;;;-1.20;99.90;;;;;;4237588;27;20537;-52
2022/01/18 08:54:25;;;;;;;;;;;-1.00;99.90;;;;;;4213786;28;20594;-52
2022/01/18 08:56:27;;;;;;;;;;;-0.90;99.90;;;;;;4231283;28;20020;-52
2022/01/18 08:58:49;;;;;;;;;;;-0.80;99.90;;;;;;4238724;27;19945;-51
2022/01/18 09:00:51;;;;;;;;;;;-0.70;99.90;;;;;;4236118;28;19985;-51
2022/01/18 09:02:53;;;;;;;;;;;-0.50;99.90;;;;;;4239925;28;19996;-48
2022/01/18 09:04:55;;;;;;;;;;;-0.50;99.90;;;;;;4236795;28;19931;-53
2022/01/18 09:07:01;;;;;;;;;;;-0.50;99.90;;;;;;4228585;28;19971;-52
2022/01/18 09:09:04;;;;;;;;;;;-0.60;99.90;;;;;;4237845;28;20613;-51
2022/01/18 09:11:07;;;;;;;;;;;-0.70;99.90;;;;;;4226615;28;19928;-49
2022/01/18 09:13:09;;;;;;;;;;;-0.70;99.90;;;;;;4236039;28;20010;-51
2022/01/18 09:15:12;;;;;;;;;;;-0.60;99.90;;;;;;4239143;28;19927;-51
2022/01/18 09:17:13;;;;;;;;;;;-0.60;99.90;;;;;;4240414;28;19923;-52
2022/01/18 09:19:16;;;;;;;;;;;-0.40;99.90;;;;;;4235425;28;20438;-52
2022/01/18 09:21:18;;;;;;;;;;;-0.40;99.90;;;;;;4237410;28;19994;-52
2022/01/18 09:23:20;;;;;;;;;;;-0.40;99.90;;;;;;4228870;28;20330;-51
2022/01/18 09:25:23;;;;;;;;;;;-0.30;99.90;;;;;;4233071;28;20384;-52
2022/01/18 09:27:25;;;;;;;;;;;-0.20;99.90;;;;;;4237833;28;19928;-53
2022/01/18 09:29:27;;;;;;;;;;;-0.10;99.90;;;;;;4240788;28;20303;-53
2022/01/18 09:31:29;;;;;;;;;;;0.00;99.90;;;;;;4232572;28;19985;-53
2022/01/18 09:33:31;;;;;;;;;;;0.00;99.90;;;;;;4230009;28;19992;-51
2022/01/18 09:35:34;;;;;;;;;;;0.10;99.90;;;;;;4236298;28;19938;-53
2022/01/18 09:37:36;;;;;;;;;;;0.20;99.90;;;;;;4239346;28;19997;-53
2022/01/18 09:39:39;;;;;;;;;;;0.30;99.90;;;;;;4235427;28;19962;-53
2022/01/18 09:41:46;;;;;;;;;;;0.50;99.90;;;;;;4239702;28;20030;-51
2022/01/18 09:43:48;;;;;;;;;;;0.50;99.90;;;;;;4237426;28;20026;-51
2022/01/18 09:45:50;;;;;;;;;;;0.70;99.90;;;;;;4241787;28;20538;-51
2022/01/18 09:47:53;;;;;;;;;;;0.80;99.90;;;;;;4227125;28;19967;-52
2022/01/18 09:49:58;;;;;;;;;;;0.90;99.90;;;;;;4233141;27;19938;-52
2022/01/18 09:52:00;;;;;;;;;;;0.90;99.90;;;;;;4237592;27;19927;-53
2022/01/18 09:54:02;;;;;;;;;;;1.00;99.90;;;;;;4244501;27;19927;-53
2022/01/18 09:56:05;;;;;;;;;;;1.10;99.90;;;;;;4237805;27;20377;-53
2022/01/18 09:58:08;;;;;;;;;;;1.20;99.90;;;;;;4244287;27;19939;-52
2022/01/18 10:00:10;;;;;;;;;;;1.30;99.90;;;;;;4236752;27;19967;-53
2022/01/18 10:02:12;;;;;;;;;;;1.50;99.90;;;;;;4245213;27;19927;-53
2022/01/18 10:04:17;;;;;;;;;;;1.60;99.90;;;;;;4237924;27;19930;-52
2022/01/18 10:06:20;;;;;;;;;;;1.70;99.90;;;;;;4244960;27;19967;-53
2022/01/18 10:08:22;;;;;;;;;;;1.90;99.90;;;;;;4235149;27;20362;-52
2022/01/18 10:10:41;;;;;;;;;;;2.00;99.90;;;;;;4246273;27;19937;-54
2022/01/18 10:12:44;;;;;;;;;;;2.10;99.90;;;;;;4236016;27;19962;-53
2022/01/18 10:14:54;;;;;;;;;;;2.30;99.90;;;;;;4244073;27;19959;-54
2022/01/18 10:16:56;;;;;;;;;;;2.50;99.90;;;;;;4239118;27;20453;-53
2022/01/18 10:19:03;;;;;;;;;;;2.60;99.90;;;;;;4224171;28;19924;-53
2022/01/18 10:21:07;;;;;;;;;;;2.80;99.90;;;;;;4236481;27;19933;-52
2022/01/18 10:23:18;;;;;;;;;;;3.00;99.90;;;;;;4225691;28;20021;-53
2022/01/18 10:25:25;;;;;;;;;;;3.20;99.90;;;;;;4239695;27;20276;-53
2022/01/18 10:27:36;;;;;;;;;;;3.40;99.90;;;;;;4236605;27;19927;-53
2022/01/18 10:29:46;;;;;;;;;;;3.50;99.90;;;;;;4235473;27;19928;-53
2022/01/18 10:34:11;;;;;;;;;;;3.80;99.90;;;;;;4238551;27;19967;-53
2022/01/18 10:36:14;;;;;;;;;;;3.90;99.90;;;;;;4233407;27;19978;-53
2022/01/18 10:38:17;;;;;;;;;;;4.00;99.90;;;;;;4239021;27;19935;-53
2022/01/18 10:40:19;;;;;;;;;;;4.20;99.90;;;;;;4241751;27;21311;-54
2022/01/18 10:42:29;;;;;;;;;;;4.40;99.90;;;;;;4241744;27;20011;-53
2022/01/18 10:44:31;;;;;;;;;;;4.60;99.90;;;;;;4233096;27;19949;-53
2022/01/18 10:46:35;;;;;;;;;;;4.90;99.90;;;;;;4238086;27;19923;-52
2022/01/18 10:48:46;;;;;;;;;;;5.00;99.90;;;;;;4240473;27;19931;-53
2022/01/18 10:50:48;;;;;;;;;;;5.10;99.90;;;;;;4238563;27;20286;-53
2022/01/18 10:52:52;;;;;;;;;;;5.10;99.90;;;;;;4238976;27;19927;-53
2022/01/18 10:54:56;;;;;;;;;;;5.30;99.90;;;;;;4230783;27;20348;-53
2022/01/18 10:57:00;;;;;;;;;;;5.40;99.90;;;;;;4232722;27;20000;-53
2022/01/18 10:59:02;;;;;;;;;;;5.50;99.90;;;;;;4239654;27;19935;-53
2022/01/18 11:01:17;;;;;;;;;;;5.70;99.90;;;;;;4239947;27;20707;-53
2022/01/18 11:03:19;;;;;;;;;;;5.70;99.90;;;;;;4238098;27;19952;-53
2022/01/18 11:05:24;;;;;;;;;;;5.80;99.90;;;;;;4239883;27;19930;-53
2022/01/18 11:07:26;;;;;;;;;;;5.90;99.90;;;;;;4217619;27;19928;-54
2022/01/18 11:09:28;;;;;;;;;;;6.00;99.90;;;;;;4241128;27;20475;-54
2022/01/18 11:11:30;;;;;;;;;;;6.10;99.90;;;;;;4232008;27;19982;-53
2022/01/18 11:13:35;;;;;;;;;;;6.20;99.90;;;;;;4241579;27;20450;-54
2022/01/18 11:15:40;;;;;;;;;;;6.40;99.90;;;;;;4232467;27;19932;-53
2022/01/18 11:17:49;;;;;;;;;;;6.50;99.90;;;;;;4236217;27;19962;-53
2022/01/18 11:19:54;;;;;;;;;;;6.70;99.90;;;;;;4234937;27;19966;-53
2022/01/18 11:21:59;;;;;;;;;;;6.90;99.90;;;;;;4244359;27;20024;-54
2022/01/18 11:24:01;;;;;;;;;;;6.90;99.90;;;;;;4235014;27;19923;-54
2022/01/18 11:26:03;;;;;;;;;;;7.00;99.90;;;;;;4238611;27;19974;-53
2022/01/18 11:28:06;;;;;;;;;;;7.20;99.90;;;;;;4234326;27;19931;-54
2022/01/18 11:30:09;;;;;;;;;;;7.30;99.90;;;;;;4242567;27;19927;-53
2022/01/18 11:32:11;;;;;;;;;;;7.40;99.90;;;;;;4233925;27;19928;-53
2022/01/18 11:34:23;;;;;;;;;;;7.60;99.90;;;;;;4242004;27;19985;-53
2022/01/18 11:36:26;;;;;;;;;;;7.70;99.90;;;;;;4233745;27;19962;-53
2022/01/18 11:38:36;;;;;;;;;;;8.00;99.90;;;;;;4228320;28;20018;-54
2022/01/18 11:40:46;;;;;;;;;;;8.10;99.90;;;;;;4232459;27;19930;-54
2022/01/18 11:42:50;;;;;;;;;;;8.30;99.90;;;;;;4245241;27;20475;-52
2022/01/18 11:44:52;;;;;;;;;;;8.40;99.90;;;;;;4232113;27;20027;-54
2022/01/18 11:46:55;;;;;;;;;;;8.60;99.90;;;;;;4237276;27;20022;-53
2022/01/18 11:49:07;;;;;;;;;;;8.70;99.90;;;;;;4231820;27;20318;-53
2022/01/18 11:51:15;;;;;;;;;;;8.80;99.90;;;;;;4223781;28;19934;-54
2022/01/18 11:53:25;;;;;;;;;;;9.00;99.90;;;;;;4231323;27;19963;-53
2022/01/18 11:55:39;;;;;;;;;;;9.20;99.90;;;;;;4244562;27;19982;-54
2022/01/18 11:57:41;;;;;;;;;;;9.50;99.90;;;;;;4233711;27;20015;-54
2022/01/18 11:59:43;;;;;;;;;;;9.80;99.90;;;;;;4231978;27;19978;-54
2022/01/18 12:01:45;;;;;;;;;;;9.70;99.90;;;;;;4234231;27;19932;-53
2022/01/18 12:03:48;;;;;;;;;;;10.00;99.90;;;;;;4231850;27;20337;-54
2022/01/18 12:05:50;;;;;;;;;;;10.10;99.90;;;;;;4235457;27;20376;-54
2022/01/18 12:07:52;;;;;;;;;;;10.20;99.90;;;;;;4236703;27;20276;-54
2022/01/18 12:09:55;;;;;;;;;;;10.30;99.90;;;;;;4235561;27;20345;-54
2022/01/18 12:11:58;;;;;;;;;;;10.30;99.90;;;;;;4240540;27;19950;-54
2022/01/18 12:14:00;;;;;;;;;;;10.70;99.90;;;;;;4233305;27;20809;-53
2022/01/18 12:16:04;;;;;;;;;;;11.20;99.90;;;;;;4240774;27;20033;-53
2022/01/18 12:18:19;;;;;;;;;;;11.30;99.90;;;;;;4231073;27;19932;-54
2022/01/18 12:20:33;;;;;;;;;;;11.30;99.90;;;;;;4236345;27;20379;-53
2022/01/18 12:22:54;;;;;;;;;;;11.50;99.90;;;;;;4233850;27;19932;-53
2022/01/18 12:25:15;;;;;;;;;;;11.70;99.90;;;;;;4236073;27;19962;-54
2022/01/18 12:27:31;;;;;;;;;;;12.00;99.90;;;;;;4233609;27;20653;-54
2022/01/18 12:34:02;;;;;;;;;;;12.40;99.40;;;;;;4205224;27;19989;-54
2022/01/18 12:36:23;;;;;;;;;;;12.60;98.40;;;;;;4230249;27;20002;-54
2022/01/18 12:38:25;;;;;;;;;;;12.50;96.60;;;;;;4239490;27;20010;-53
2022/01/18 12:40:28;;;;;;;;;;;12.70;98.20;;;;;;4236071;27;19928;-53
2022/01/18 12:44:43;;;;;;;;;;;13.10;99.20;;;;;;4227482;27;19928;-54
2022/01/18 12:46:51;;;;;;;;;;;13.10;99.90;;;;;;4231080;27;19931;-54
2022/01/18 12:48:55;;;;;;;;;;;13.00;98.90;;;;;;4235932;27;19996;-53
2022/01/18 12:50:58;;;;;;;;;;;13.10;99.30;;;;;;4240280;27;19932;-53
2022/01/18 12:53:02;;;;;;;;;;;13.00;99.40;;;;;;4236217;27;19928;-54
2022/01/18 12:55:04;;;;;;;;;;;13.20;99.90;;;;;;4238392;27;20001;-54
2022/01/18 12:57:13;;;;;;;;;;;13.40;98.80;;;;;;4235814;27;20423;-54
2022/01/18 12:59:15;;;;;;;;;;;13.70;98.60;;;;;;4241897;27;19930;-53
2022/01/18 13:01:20;;;;;;;;;;;13.30;98.70;;;;;;4230999;27;19973;-54
2022/01/18 13:03:22;;;;;;;;;;;13.20;98.30;;;;;;4231721;28;20379;-53
2022/01/18 13:05:32;;;;;;;;;;;13.50;99.60;;;;;;4233715;28;20627;-53
2022/01/18 13:07:48;;;;;;;;;;;13.60;97.80;;;;;;4242509;28;19934;-53
2022/01/18 13:09:57;;;;;;;;;;;13.50;95.70;;;;;;4228715;28;20018;-54
2022/01/18 13:12:03;;;;;;;;;;;13.60;96.60;;;;;;4236376;28;19949;-53
2022/01/18 13:14:13;;;;;;;;;;;13.60;97.20;;;;;;4237101;28;19948;-53
2022/01/18 13:23:06;;;;;;;;;;;14.30;91.80;;;;;;4239287;27;19927;-54
2022/01/18 13:25:13;;;;;;;;;;;14.50;87.00;;;;;;4239747;27;19932;-53
2022/01/18 13:29:26;;;;;;;;;;;14.60;88.20;;;;;;4237775;27;19973;-54